createdAt,value
2019-04-05T00:00:50.786Z,137.82
2019-04-05T00:03:24.146Z,62.13
2019-04-05T00:05:58.535Z,63.25
2019-04-05T00:08:31.981Z,57.80
2019-04-05T00:11:05.181Z,51.45
2019-04-05T00:13:39.404Z,55.48
2019-04-05T00:21:56.344Z,145.28
2019-04-05T00:24:32.871Z,98.67
2019-04-05T00:27:06.363Z,63.35
2019-04-05T00:29:39.854Z,105.70
2019-04-05T00:32:14.274Z,62.90
2019-04-05T00:34:47.970Z,46.15
2019-04-05T00:37:21.369Z,71.25
2019-04-05T00:39:54.735Z,50.88
2019-04-05T00:42:28.101Z,52.25
2019-04-05T00:45:01.563Z,47.33
2019-04-05T00:47:36.031Z,66.82
2019-04-05T00:50:10.063Z,58.60
2019-04-05T00:52:59.660Z,46.77
2019-04-05T00:55:33.115Z,196.35
2019-04-05T00:58:10.554Z,296.93
2019-04-05T01:00:44.162Z,319.70
2019-04-05T01:03:17.629Z,478.80
2019-04-05T01:11:22.329Z,47.40
2019-04-05T01:13:56.872Z,44.35
2019-04-05T01:16:31.494Z,42.55
2019-04-05T01:19:04.953Z,42.78
2019-04-05T01:21:42.124Z,46.83
2019-04-05T01:27:01.695Z,37.50
2019-04-05T01:29:35.064Z,43.80
2019-04-05T01:32:08.470Z,34.80
2019-04-05T01:34:41.813Z,36.77
2019-04-05T01:37:16.503Z,42.83
2019-04-05T01:39:49.889Z,59.65
2019-04-05T01:42:24.520Z,196.82
2019-04-05T01:44:58.391Z,335.02
2019-04-05T01:47:39.169Z,222.55
2019-04-05T01:50:14.015Z,129.45
2019-04-05T01:52:48.621Z,85.95
2019-04-05T01:55:22.077Z,67.30
2019-04-05T01:57:55.980Z,48.35
2019-04-05T02:00:29.355Z,48.55
2019-04-05T02:03:02.720Z,48.45
2019-04-05T02:05:36.260Z,38.38
2019-04-05T02:08:09.656Z,43.38
2019-04-05T02:10:43.123Z,43.55
2019-04-05T02:13:29.063Z,45.52
2019-04-05T02:16:06.658Z,47.58
2019-04-05T02:18:37.947Z,374.37
2019-04-05T02:21:11.373Z,166.73
2019-04-05T02:23:45.911Z,73.65
2019-04-05T02:26:20.518Z,58.80
2019-04-05T02:28:53.949Z,46.02
2019-04-05T02:31:27.337Z,44.67
2019-04-05T02:34:01.677Z,40.28
2019-04-05T02:36:35.232Z,46.18
2019-04-05T02:39:09.287Z,36.98
2019-04-05T02:41:50.280Z,35.90
2019-04-05T02:44:25.567Z,37.38
2019-04-05T02:46:59.141Z,34.80
2019-04-05T02:49:35.390Z,42.20
2019-04-05T02:52:09.370Z,38.08
2019-04-05T02:54:45.088Z,36.88
2019-04-05T02:57:21.645Z,37.88
2019-04-05T02:59:56.612Z,38.38
2019-04-05T03:02:30.715Z,42.90
2019-04-05T03:05:04.264Z,39.25
2019-04-05T03:07:37.938Z,45.63
2019-04-05T03:10:52.045Z,44.88
2019-04-05T03:13:49.757Z,45.73
2019-04-05T03:16:39.548Z,44.23
2019-04-05T03:19:12.215Z,46.83
2019-04-05T03:21:50.092Z,47.83
2019-04-05T03:24:29.023Z,37.40
2019-04-05T03:27:06.819Z,39.08
2019-04-05T03:29:40.277Z,42.95
2019-04-05T03:32:14.774Z,39.00
2019-04-05T03:34:48.846Z,39.65
2019-04-05T03:37:22.924Z,43.70
2019-04-05T03:39:57.526Z,41.75
2019-04-05T03:45:52.352Z,38.50
2019-04-05T03:48:26.168Z,42.80
2019-04-05T03:50:59.630Z,45.38
2019-04-05T03:53:34.399Z,39.20
2019-04-05T03:56:08.078Z,47.13
2019-04-05T03:58:43.564Z,46.98
2019-04-05T04:01:17.061Z,49.95
2019-04-05T04:03:51.873Z,46.95
2019-04-05T04:09:17.807Z,44.77
2019-04-05T04:11:53.057Z,55.48
2019-04-05T04:14:26.746Z,48.50
2019-04-05T04:17:12.222Z,41.95
2019-04-05T04:19:35.645Z,46.53
2019-04-05T04:22:19.324Z,46.10
2019-04-05T04:24:53.726Z,41.15
2019-04-05T04:27:28.486Z,43.73
2019-04-05T04:30:02.333Z,39.92
2019-04-05T04:32:36.896Z,47.08
2019-04-05T04:35:10.906Z,41.25
2019-04-05T04:37:44.289Z,83.10
2019-04-05T04:40:37.485Z,38.53
2019-04-05T04:43:11.951Z,70.42
2019-04-05T04:45:45.674Z,89.37
2019-04-05T04:48:19.238Z,40.83
2019-04-05T04:50:53.171Z,43.68
2019-04-05T04:53:27.021Z,42.50
2019-04-05T04:56:00.612Z,44.38
2019-04-05T04:58:34.141Z,36.08
2019-04-05T05:01:08.117Z,50.10
2019-04-05T05:03:42.041Z,44.58
2019-04-05T05:06:15.627Z,41.48
2019-04-05T05:08:49.453Z,42.08
2019-04-05T05:11:22.923Z,40.98
2019-04-05T05:13:56.822Z,42.58
2019-04-05T05:16:40.382Z,49.20
2019-04-05T05:19:14.490Z,42.50
2019-04-05T05:21:48.143Z,48.50
2019-04-05T05:24:21.911Z,41.70
2019-04-05T05:26:55.842Z,41.30
2019-04-05T05:29:29.631Z,43.20
2019-04-05T05:32:09.668Z,48.68
2019-04-05T05:34:43.603Z,48.25
2019-04-05T05:37:17.352Z,60.95
2019-04-05T05:39:50.902Z,69.95
2019-04-05T05:42:24.463Z,52.93
2019-04-05T05:44:58.033Z,48.42
2019-04-05T05:47:31.521Z,50.03
2019-04-05T05:50:08.395Z,69.92
2019-04-05T05:52:42.315Z,68.72
2019-04-05T05:55:16.265Z,47.30
2019-04-05T05:57:49.881Z,42.40
2019-04-05T06:00:24.264Z,46.42
2019-04-05T06:02:57.704Z,56.00
2019-04-05T06:05:31.265Z,52.85
2019-04-05T06:08:05.802Z,42.15
2019-04-05T06:10:39.229Z,57.48
2019-04-05T06:13:12.639Z,56.10
2019-04-05T06:15:46.143Z,41.77
2019-04-05T06:18:19.673Z,34.88
2019-04-05T06:20:53.059Z,35.50
2019-04-05T06:23:33.499Z,41.83
2019-04-05T06:26:03.629Z,38.70
2019-04-05T06:28:37.098Z,42.53
2019-04-05T06:31:10.699Z,29.67
2019-04-05T06:33:44.071Z,39.48
2019-04-05T06:36:17.510Z,42.70
2019-04-05T06:38:51.442Z,39.88
2019-04-05T06:41:24.903Z,37.93
2019-04-05T06:43:58.341Z,42.73
2019-04-05T06:46:31.753Z,36.48
2019-04-05T06:49:05.137Z,33.25
2019-04-05T06:51:38.501Z,35.48
2019-04-05T06:54:12.572Z,32.38
2019-04-05T06:56:46.198Z,60.67
2019-04-05T06:59:21.155Z,42.98
2019-04-05T07:01:54.680Z,35.75
2019-04-05T07:04:30.887Z,37.30
2019-04-05T07:07:04.223Z,31.12
2019-04-05T07:09:37.631Z,30.55
2019-04-05T07:12:11.264Z,33.73
2019-04-05T07:14:44.635Z,29.37
2019-04-05T07:17:18.932Z,29.82
2019-04-05T07:19:52.294Z,34.35
2019-04-05T07:22:37.010Z,28.30
2019-04-05T07:25:00.805Z,31.55
2019-04-05T07:27:34.799Z,30.30
2019-04-05T07:30:09.623Z,30.92
2019-04-05T07:32:43.163Z,31.25
2019-04-05T07:35:33.780Z,32.80
2019-04-05T07:38:03.561Z,29.30
2019-04-05T07:40:37.016Z,28.27
2019-04-05T07:43:10.520Z,39.50
2019-04-05T07:45:45.949Z,30.17
2019-04-05T07:48:19.752Z,26.77
2019-04-05T07:50:53.213Z,29.02
2019-04-05T07:53:26.890Z,30.30
2019-04-05T07:56:00.293Z,34.05
2019-04-05T07:58:34.892Z,31.42
2019-04-05T08:01:09.127Z,33.55
2019-04-05T08:03:42.761Z,25.17
2019-04-05T08:06:17.038Z,26.55
2019-04-05T08:08:57.913Z,26.87
2019-04-05T08:11:32.103Z,28.27
2019-04-05T08:14:05.913Z,30.55
2019-04-05T08:16:39.342Z,27.70
2019-04-05T08:19:12.804Z,25.45
2019-04-05T08:21:46.264Z,28.73
2019-04-05T08:24:19.764Z,27.65
2019-04-05T08:26:53.137Z,29.42
2019-04-05T08:29:26.552Z,27.20
2019-04-05T08:32:13.588Z,33.20
2019-04-05T08:34:35.611Z,27.17
2019-04-05T08:37:08.989Z,25.00
2019-04-05T08:39:42.421Z,32.48
2019-04-05T08:42:15.837Z,28.45
2019-04-05T08:44:49.241Z,33.28
2019-04-05T08:47:26.982Z,26.15
2019-04-05T08:50:00.518Z,23.40
2019-04-05T08:52:33.884Z,27.15
2019-04-05T08:55:08.384Z,27.87
2019-04-05T08:57:41.732Z,23.18
2019-04-05T09:00:15.938Z,27.93
2019-04-05T09:02:49.336Z,25.60
2019-04-05T09:05:24.465Z,30.45
2019-04-05T09:07:57.862Z,26.00
2019-04-05T09:10:31.432Z,27.73
2019-04-05T09:13:04.908Z,26.12
2019-04-05T09:15:38.422Z,24.40
2019-04-05T09:18:12.633Z,30.52
2019-04-05T09:20:46.141Z,28.00
2019-04-05T09:23:19.545Z,25.32
2019-04-05T09:26:00.223Z,29.32
2019-04-05T09:28:34.822Z,26.02
2019-04-05T09:31:08.315Z,25.95
2019-04-05T09:33:41.732Z,24.63
2019-04-05T09:36:15.185Z,28.25
2019-04-05T09:38:48.596Z,25.48
2019-04-05T09:41:22.113Z,23.77
2019-04-05T09:43:57.672Z,20.97
2019-04-05T09:46:31.146Z,21.10
2019-04-05T09:49:04.840Z,22.77
2019-04-05T09:51:38.181Z,21.05
2019-04-05T09:54:11.868Z,27.55
2019-04-05T09:56:45.560Z,22.48
2019-04-05T09:59:18.932Z,22.62
2019-04-05T10:01:52.452Z,24.95
2019-04-05T10:04:25.744Z,23.77
2019-04-05T10:06:59.168Z,28.42
2019-04-05T10:09:32.566Z,20.72
2019-04-05T10:12:05.999Z,22.25
2019-04-05T10:14:42.242Z,22.00
2019-04-05T10:17:16.002Z,47.62
2019-04-05T10:19:50.488Z,29.18
2019-04-05T10:22:23.967Z,23.50
2019-04-05T10:24:57.329Z,20.48
2019-04-05T10:27:30.921Z,22.90
2019-04-05T10:30:06.029Z,23.05
2019-04-05T10:32:39.432Z,22.35
2019-04-05T10:35:13.072Z,21.85
2019-04-05T10:37:46.548Z,22.13
2019-04-05T10:40:20.095Z,28.47
2019-04-05T10:42:53.616Z,23.10
2019-04-05T10:45:27.197Z,25.32
2019-04-05T10:48:00.662Z,22.37
2019-04-05T10:50:35.624Z,28.80
2019-04-05T10:53:09.015Z,22.35
2019-04-05T10:55:42.541Z,20.65
2019-04-05T10:58:16.113Z,20.92
2019-04-05T11:00:49.807Z,25.72
2019-04-05T11:03:23.255Z,19.48
2019-04-05T11:05:56.712Z,19.95
2019-04-05T11:08:30.091Z,26.42
2019-04-05T11:11:07.640Z,19.75
2019-04-05T11:13:42.253Z,22.13
2019-04-05T11:16:15.762Z,23.07
2019-04-05T11:18:49.356Z,21.90
2019-04-05T11:21:22.760Z,22.80
2019-04-05T11:23:56.387Z,23.38
2019-04-05T11:26:29.802Z,18.60
2019-04-05T11:29:03.164Z,19.20
2019-04-05T11:31:36.662Z,22.40
2019-04-05T11:34:10.337Z,20.68
2019-04-05T11:36:44.068Z,23.40
2019-04-05T11:39:17.598Z,18.25
2019-04-05T11:41:55.527Z,22.98
2019-04-05T11:44:29.900Z,22.13
2019-04-05T11:47:05.115Z,20.15
2019-04-05T11:49:40.236Z,20.72
2019-04-05T11:52:13.651Z,25.10
2019-04-05T11:54:47.035Z,21.70
2019-04-05T11:57:20.544Z,19.17
2019-04-05T11:59:54.052Z,19.48
2019-04-05T12:02:28.990Z,25.10
2019-04-05T12:05:02.492Z,19.23
2019-04-05T12:07:36.061Z,21.30
2019-04-05T12:10:10.894Z,23.10
2019-04-05T12:12:44.492Z,18.73
2019-04-05T12:15:18.000Z,21.65
2019-04-05T12:17:51.496Z,22.35
2019-04-05T12:20:24.849Z,27.02
2019-04-05T12:22:58.275Z,23.90
2019-04-05T12:25:33.578Z,28.12
2019-04-05T12:28:10.284Z,22.98
2019-04-05T12:30:45.792Z,19.17
2019-04-05T12:33:19.661Z,16.02
2019-04-05T12:35:56.644Z,17.00
2019-04-05T12:38:33.135Z,24.30
2019-04-05T12:41:10.661Z,17.17
2019-04-05T12:43:44.624Z,27.40
2019-04-05T12:46:17.103Z,23.57
2019-04-05T12:48:51.726Z,18.32
2019-04-05T12:51:25.264Z,18.90
2019-04-05T12:53:58.695Z,20.75
2019-04-05T12:56:32.113Z,16.02
2019-04-05T12:59:05.799Z,17.70
2019-04-05T13:01:39.374Z,26.23
2019-04-05T13:04:12.927Z,18.17
2019-04-05T13:06:47.446Z,19.60
2019-04-05T13:09:21.453Z,27.13
2019-04-05T13:11:57.343Z,22.15
2019-04-05T13:14:31.010Z,22.93
2019-04-05T13:17:04.394Z,18.40
2019-04-05T13:19:37.909Z,21.75
2019-04-05T13:22:11.285Z,18.02
2019-04-05T13:24:44.740Z,25.32
2019-04-05T13:27:18.086Z,15.95
2019-04-05T13:29:51.699Z,20.37
2019-04-05T13:32:25.153Z,20.00
2019-04-05T13:34:58.741Z,19.45
2019-04-05T13:37:32.216Z,22.85
2019-04-05T13:40:08.061Z,17.52
2019-04-05T13:42:41.512Z,31.02
2019-04-05T13:45:16.944Z,25.75
2019-04-05T13:47:50.311Z,16.25
2019-04-05T13:50:23.885Z,17.57
2019-04-05T13:52:57.365Z,15.80
2019-04-05T13:55:30.978Z,15.58
2019-04-05T13:58:04.663Z,28.00
2019-04-05T14:00:39.261Z,17.00
2019-04-05T14:03:12.659Z,14.18
2019-04-05T14:05:46.235Z,13.48
2019-04-05T14:08:20.805Z,16.52
2019-04-05T14:10:54.454Z,21.33
2019-04-05T14:13:27.947Z,16.12
2019-04-05T14:16:01.497Z,15.65
2019-04-05T14:18:34.882Z,12.40
2019-04-05T14:21:08.397Z,17.60
2019-04-05T14:23:41.904Z,15.53
2019-04-05T14:26:15.414Z,12.90
2019-04-05T14:28:53.140Z,13.48
2019-04-05T14:31:26.683Z,14.30
2019-04-05T14:34:00.090Z,16.15
2019-04-05T14:36:33.757Z,12.78
2019-04-05T14:39:10.743Z,17.23
2019-04-05T14:41:44.527Z,15.15
2019-04-05T14:44:18.035Z,14.70
2019-04-05T14:46:51.597Z,17.02
2019-04-05T14:49:25.090Z,18.15
2019-04-05T14:52:01.062Z,17.95
2019-04-05T14:54:34.432Z,13.68
2019-04-05T14:57:07.974Z,17.37
2019-04-05T14:59:41.571Z,12.98
2019-04-05T15:02:15.221Z,16.65
2019-04-05T15:04:49.487Z,37.58
2019-04-05T15:07:23.131Z,38.08
2019-04-05T15:09:56.563Z,17.07
2019-04-05T15:12:30.004Z,33.80
2019-04-05T15:15:06.256Z,22.62
2019-04-05T15:17:47.978Z,41.18
2019-04-05T15:20:15.685Z,25.48
2019-04-05T15:22:49.241Z,23.20
2019-04-05T15:25:22.823Z,24.52
2019-04-05T15:27:56.813Z,31.75
2019-04-05T15:30:30.302Z,37.78
2019-04-05T15:33:04.461Z,25.82
2019-04-05T15:35:37.823Z,28.50
2019-04-05T15:38:11.627Z,23.50
2019-04-05T15:40:45.332Z,21.68
2019-04-05T15:43:19.039Z,24.80
2019-04-05T15:45:52.516Z,19.95
2019-04-05T15:48:25.965Z,20.90
2019-04-05T15:50:59.477Z,19.52
2019-04-05T15:53:33.042Z,15.78
2019-04-05T15:56:09.447Z,14.38
2019-04-05T15:58:43.040Z,33.28
2019-04-05T16:01:17.331Z,16.32
2019-04-05T16:03:50.742Z,13.08
2019-04-05T16:06:24.285Z,14.00
2019-04-05T16:08:57.845Z,14.95
2019-04-05T16:11:31.292Z,13.75
2019-04-05T16:14:05.133Z,15.48
2019-04-05T16:16:39.464Z,20.65
2019-04-05T16:19:14.083Z,18.35
2019-04-05T16:21:47.462Z,14.87
2019-04-05T16:24:20.981Z,20.05
2019-04-05T16:26:54.450Z,13.15
2019-04-05T16:29:28.027Z,15.95
2019-04-05T16:32:01.482Z,21.93
2019-04-05T16:34:35.939Z,18.42
2019-04-05T16:37:09.435Z,15.80
2019-04-05T16:39:43.022Z,25.65
2019-04-05T16:42:16.542Z,31.57
2019-04-05T16:44:50.132Z,16.60
2019-04-05T16:47:23.636Z,18.23
2019-04-05T16:49:58.342Z,14.83
2019-04-05T16:52:43.787Z,19.55
2019-04-05T16:55:07.799Z,24.55
2019-04-05T16:57:41.185Z,18.73
2019-04-05T17:00:15.813Z,18.82
2019-04-05T17:02:49.419Z,20.02
2019-04-05T17:05:23.073Z,17.87
2019-04-05T17:07:56.468Z,18.60
2019-04-05T17:10:30.078Z,22.62
2019-04-05T17:13:03.736Z,22.48
2019-04-05T17:15:37.307Z,34.40
2019-04-05T17:18:12.242Z,26.75
2019-04-05T17:20:45.769Z,34.75
2019-04-05T17:23:19.365Z,57.58
2019-04-05T17:25:52.915Z,33.90
2019-04-05T17:28:26.422Z,30.12
2019-04-05T17:30:59.991Z,34.35
2019-04-05T17:33:33.499Z,27.87
2019-04-05T17:36:10.065Z,31.80
2019-04-05T17:38:44.732Z,46.77
2019-04-05T17:41:18.180Z,44.75
2019-04-05T17:43:51.624Z,43.20
2019-04-05T17:46:25.079Z,38.63
2019-04-05T17:48:58.532Z,49.93
2019-04-05T17:51:32.582Z,37.83
2019-04-05T17:54:06.196Z,40.80
2019-04-05T17:56:39.951Z,38.50
2019-04-05T17:59:13.982Z,42.35
2019-04-05T18:01:47.523Z,45.90
2019-04-05T18:04:20.899Z,46.02
2019-04-05T18:06:54.514Z,52.60
2019-04-05T18:09:28.015Z,53.52
2019-04-05T18:12:01.598Z,38.73
2019-04-05T18:14:35.124Z,45.23
2019-04-05T18:17:09.742Z,43.10
2019-04-05T18:19:43.406Z,34.50
2019-04-05T18:22:17.047Z,39.50
2019-04-05T18:24:50.554Z,64.50
2019-04-05T18:27:25.158Z,57.65
2019-04-05T18:29:58.610Z,42.80
2019-04-05T18:32:32.039Z,41.50
2019-04-05T18:35:06.533Z,45.10
2019-04-05T18:37:40.012Z,41.65
2019-04-05T18:40:14.931Z,55.28
2019-04-05T18:42:48.494Z,46.20
2019-04-05T18:45:21.862Z,34.95
2019-04-05T18:47:55.289Z,34.70
2019-04-05T18:50:28.573Z,46.33
2019-04-05T18:53:01.976Z,39.45
2019-04-05T18:55:35.960Z,49.45
2019-04-05T18:58:09.357Z,54.65
2019-04-05T19:00:42.793Z,58.92
2019-04-05T19:03:16.224Z,40.20
2019-04-05T19:05:49.763Z,38.20
2019-04-05T19:08:23.324Z,37.23
2019-04-05T19:10:56.705Z,42.95
2019-04-05T19:13:30.243Z,57.23
2019-04-05T19:16:03.722Z,62.48
2019-04-05T19:18:37.224Z,50.73
2019-04-05T19:21:10.693Z,52.93
2019-04-05T19:23:50.875Z,77.53
2019-04-05T19:26:19.211Z,87.75
2019-04-05T19:28:52.760Z,61.83
2019-04-05T19:49:32.254Z,38.33
2019-04-05T19:52:05.778Z,42.03
2019-04-05T19:54:39.454Z,39.33
2019-04-05T19:57:12.830Z,52.45
2019-04-05T19:59:46.250Z,39.58
2019-04-05T20:02:20.801Z,68.47
2019-04-05T20:04:54.522Z,41.23
2019-04-05T20:07:29.025Z,49.75
2019-04-05T20:10:02.548Z,45.33
2019-04-05T20:12:37.046Z,42.17
2019-04-05T20:15:10.830Z,42.75
2019-04-05T20:17:44.322Z,46.77
2019-04-05T20:20:17.876Z,50.38
2019-04-05T20:22:51.245Z,41.83
2019-04-05T20:25:25.743Z,41.25
2019-04-05T20:27:59.352Z,38.58
2019-04-05T20:30:34.002Z,37.17
2019-04-05T20:33:07.503Z,40.38
2019-04-05T20:35:40.919Z,47.55
2019-04-05T20:38:14.803Z,43.92
2019-04-05T20:40:48.446Z,43.65
2019-04-05T20:43:21.923Z,51.05
2019-04-05T20:45:55.683Z,41.58
2019-04-05T20:48:29.257Z,36.17
2019-04-05T20:51:02.862Z,42.38
2019-04-05T20:53:36.231Z,42.15
2019-04-05T20:56:09.852Z,43.63
2019-04-05T20:58:43.538Z,44.03
2019-04-05T21:01:17.293Z,40.88
2019-04-05T21:03:50.944Z,42.80
2019-04-05T21:06:24.496Z,39.67
2019-04-05T21:08:57.848Z,45.00
2019-04-05T21:11:31.371Z,52.03
2019-04-05T21:14:05.903Z,43.38
2019-04-05T21:16:39.433Z,46.83
2019-04-05T21:19:13.928Z,42.23
2019-04-05T21:21:47.345Z,38.08
2019-04-05T21:24:20.708Z,46.58
2019-04-05T21:26:54.523Z,43.95
2019-04-05T21:29:28.147Z,39.55
2019-04-05T21:32:01.662Z,38.02
2019-04-05T21:34:35.030Z,47.15
2019-04-05T21:37:08.464Z,42.17
2019-04-05T21:39:42.921Z,45.50
2019-04-05T21:42:16.331Z,53.90
2019-04-05T21:44:49.719Z,46.13
2019-04-05T21:47:23.122Z,43.80
2019-04-05T21:49:56.516Z,40.05
2019-04-05T21:52:29.899Z,42.15
2019-04-05T21:55:03.333Z,40.70
2019-04-05T21:57:36.770Z,49.73
2019-04-05T22:00:30.778Z,45.28
2019-04-05T22:03:04.482Z,45.17
2019-04-05T22:05:37.873Z,48.28
2019-04-05T22:08:11.409Z,40.05
2019-04-05T22:10:44.878Z,41.45
2019-04-05T22:13:18.181Z,42.05
2019-04-05T22:15:51.635Z,50.40
2019-04-05T22:18:25.001Z,42.27
2019-04-05T22:20:58.416Z,50.88
2019-04-05T22:23:31.776Z,39.48
2019-04-05T22:26:05.169Z,45.12
2019-04-05T22:28:39.382Z,47.17
2019-04-05T22:31:12.847Z,48.60
2019-04-05T22:33:46.363Z,53.63
2019-04-05T22:36:19.783Z,52.20
2019-04-05T22:38:53.151Z,49.58
2019-04-05T22:41:26.590Z,50.83
2019-04-05T22:43:59.924Z,53.00
2019-04-05T22:46:33.324Z,47.48
2019-04-05T22:49:06.692Z,44.83
2019-04-05T22:51:43.514Z,45.38
2019-04-05T22:54:16.894Z,51.63
2019-04-05T22:56:50.295Z,48.25
2019-04-05T22:59:23.713Z,46.15
2019-04-05T23:01:57.119Z,42.55
2019-04-05T23:04:30.584Z,48.83
2019-04-05T23:07:04.015Z,44.77
2019-04-05T23:09:37.840Z,40.48
2019-04-05T23:12:11.420Z,40.38
2019-04-05T23:14:44.773Z,49.80
2019-04-05T23:17:18.168Z,40.70
2019-04-05T23:19:51.459Z,40.70
2019-04-05T23:22:24.834Z,44.05
2019-04-05T23:24:58.180Z,44.65
2019-04-05T23:27:31.564Z,40.00
2019-04-05T23:30:06.105Z,40.75
2019-04-05T23:32:39.525Z,45.63
2019-04-05T23:35:12.866Z,38.35
2019-04-05T23:37:46.289Z,47.10
2019-04-05T23:40:19.663Z,42.40
2019-04-05T23:42:53.122Z,40.48
2019-04-05T23:45:26.591Z,45.43
2019-04-05T23:47:59.983Z,42.25
2019-04-05T23:50:33.330Z,36.25
2019-04-05T23:53:06.711Z,39.73
2019-04-05T23:55:40.083Z,38.23
2019-04-05T23:58:13.472Z,43.28
